createdAt,value
2022-10-28T00:00:03.830Z,15.25
2022-10-28T00:01:03.933Z,15.25
2022-10-28T00:02:03.886Z,15.31
2022-10-28T00:03:03.874Z,15.31
2022-10-28T00:04:03.750Z,15.31
2022-10-28T00:05:03.763Z,15.38
2022-10-28T00:06:03.752Z,15.38
2022-10-28T00:07:03.774Z,15.31
2022-10-28T00:08:03.827Z,15.31
2022-10-28T00:09:04.632Z,15.31
2022-10-28T00:10:04.095Z,15.31
2022-10-28T00:11:04.382Z,15.31
2022-10-28T00:12:04.386Z,15.31
2022-10-28T00:13:04.410Z,15.31
2022-10-28T00:14:04.308Z,15.31
2022-10-28T00:15:04.382Z,15.38
2022-10-28T00:16:03.585Z,15.31
2022-10-28T00:17:03.511Z,15.31
2022-10-28T00:18:03.582Z,15.38
2022-10-28T00:19:03.837Z,15.38
2022-10-28T00:20:03.749Z,15.38
2022-10-28T00:21:03.669Z,15.38
2022-10-28T00:22:03.754Z,15.38
2022-10-28T00:23:03.682Z,15.38
2022-10-28T00:24:03.753Z,15.38
2022-10-28T00:25:03.671Z,15.38
2022-10-28T00:26:03.671Z,15.38
2022-10-28T00:27:03.657Z,15.38
2022-10-28T00:28:03.659Z,15.38
2022-10-28T00:29:03.590Z,15.38
2022-10-28T00:30:03.669Z,15.38
2022-10-28T00:31:03.685Z,15.38
2022-10-28T00:32:03.520Z,15.38
2022-10-28T00:33:03.658Z,15.38
2022-10-28T00:34:03.736Z,15.38
2022-10-28T00:35:03.746Z,15.38
2022-10-28T00:36:04.371Z,15.38
2022-10-28T00:37:03.748Z,15.38
2022-10-28T00:38:03.830Z,15.38
2022-10-28T00:39:03.745Z,15.38
2022-10-28T00:40:03.824Z,15.38
2022-10-28T00:41:03.817Z,15.38
2022-10-28T00:42:03.932Z,15.38
2022-10-28T00:43:03.847Z,15.38
2022-10-28T00:44:03.905Z,15.38
2022-10-28T00:45:03.997Z,15.38
2022-10-28T00:46:04.072Z,15.38
2022-10-28T00:47:03.991Z,15.38
2022-10-28T00:48:04.149Z,15.38
2022-10-28T00:49:04.162Z,15.38
2022-10-28T00:50:04.149Z,15.38
2022-10-28T00:51:04.231Z,15.38
2022-10-28T00:52:04.074Z,15.38
2022-10-28T00:53:04.142Z,15.38
2022-10-28T00:54:04.197Z,15.38
2022-10-28T00:55:04.156Z,15.38
2022-10-28T00:56:04.155Z,15.38
2022-10-28T00:57:04.222Z,15.38
2022-10-28T00:58:04.231Z,15.38
2022-10-28T00:59:04.250Z,15.38
2022-10-28T01:00:04.306Z,15.38
2022-10-28T01:01:04.301Z,15.38
2022-10-28T01:02:04.547Z,15.38
2022-10-28T01:03:04.458Z,15.38
2022-10-28T01:04:03.498Z,15.38
2022-10-28T01:05:03.516Z,15.44
2022-10-28T01:06:03.670Z,15.44
2022-10-28T01:07:03.600Z,15.44
2022-10-28T01:08:03.583Z,15.44
2022-10-28T01:09:03.668Z,15.44
2022-10-28T01:10:03.668Z,15.38
2022-10-28T01:11:03.666Z,15.38
2022-10-28T01:12:03.666Z,15.44
2022-10-28T01:13:03.573Z,15.38
2022-10-28T01:14:03.582Z,15.44
2022-10-28T01:15:03.583Z,15.38
2022-10-28T01:16:03.588Z,15.44
2022-10-28T01:17:03.767Z,15.44
2022-10-28T01:18:03.754Z,15.44
2022-10-28T01:19:03.713Z,15.44
2022-10-28T01:20:03.744Z,15.44
2022-10-28T01:21:03.654Z,15.44
2022-10-28T01:22:03.744Z,15.44
2022-10-28T01:23:03.847Z,15.44
2022-10-28T01:24:03.772Z,15.44
2022-10-28T01:25:03.755Z,15.44
2022-10-28T01:26:03.756Z,15.44
2022-10-28T01:27:03.820Z,15.44
2022-10-28T01:28:03.830Z,15.44
2022-10-28T01:29:04.092Z,15.44
2022-10-28T01:30:04.058Z,15.44
2022-10-28T01:31:04.157Z,15.44
2022-10-28T01:32:04.140Z,15.38
2022-10-28T01:33:04.147Z,15.44
2022-10-28T01:34:04.145Z,15.44
2022-10-28T01:35:04.072Z,15.38
2022-10-28T01:36:04.221Z,15.38
2022-10-28T01:37:04.217Z,15.38
2022-10-28T01:38:03.502Z,15.38
2022-10-28T01:39:03.747Z,15.38
2022-10-28T01:40:04.225Z,15.38
2022-10-28T01:41:04.229Z,15.38
2022-10-28T01:42:04.163Z,15.31
2022-10-28T01:43:04.397Z,15.31
2022-10-28T01:44:04.389Z,15.31
2022-10-28T01:45:04.379Z,15.31
2022-10-28T01:46:04.390Z,15.25
2022-10-28T01:47:03.589Z,15.31
2022-10-28T01:48:03.534Z,15.31
2022-10-28T01:49:03.509Z,15.31
2022-10-28T01:50:04.485Z,15.31
2022-10-28T01:51:04.390Z,15.25
2022-10-28T01:52:04.388Z,15.25
2022-10-28T01:53:03.509Z,15.25
2022-10-28T01:54:03.496Z,15.25
2022-10-28T01:55:03.504Z,15.25
2022-10-28T01:56:03.591Z,15.19
2022-10-28T01:57:03.673Z,15.19
2022-10-28T01:58:03.580Z,15.12
2022-10-28T01:59:03.696Z,15.19
2022-10-28T02:00:03.753Z,15.12
2022-10-28T02:01:03.767Z,15.12
2022-10-28T02:02:03.700Z,15.12
2022-10-28T02:03:03.669Z,15.12
2022-10-28T02:04:03.760Z,15.06
2022-10-28T02:05:03.669Z,15.06
2022-10-28T02:06:03.669Z,15.06
2022-10-28T02:07:03.746Z,15.00
2022-10-28T02:08:03.817Z,15.00
2022-10-28T02:09:03.833Z,15.00
2022-10-28T02:10:03.667Z,15.00
2022-10-28T02:11:03.742Z,15.00
2022-10-28T02:12:03.835Z,15.00
2022-10-28T02:13:03.907Z,15.00
2022-10-28T02:14:03.989Z,15.00
2022-10-28T02:15:03.991Z,15.00
2022-10-28T02:16:04.060Z,15.00
2022-10-28T02:17:04.149Z,14.94
2022-10-28T02:18:04.066Z,14.94
2022-10-28T02:19:04.139Z,14.94
2022-10-28T02:20:04.143Z,14.94
2022-10-28T02:21:04.233Z,14.94
2022-10-28T02:22:04.230Z,14.94
2022-10-28T02:23:03.983Z,14.94
2022-10-28T02:24:04.008Z,14.88
2022-10-28T02:25:04.068Z,14.88
2022-10-28T02:26:04.078Z,14.88
2022-10-28T02:27:04.054Z,14.88
2022-10-28T02:28:04.124Z,14.88
2022-10-28T02:29:04.069Z,14.88
2022-10-28T02:30:04.058Z,14.81
2022-10-28T02:31:04.008Z,14.81
2022-10-28T02:32:04.145Z,14.81
2022-10-28T02:33:04.148Z,14.81
2022-10-28T02:34:04.307Z,14.81
2022-10-28T02:35:04.238Z,14.75
2022-10-28T02:36:04.223Z,14.75
2022-10-28T02:37:04.321Z,14.75
2022-10-28T02:38:04.138Z,14.75
2022-10-28T02:39:04.220Z,14.75
2022-10-28T02:40:04.143Z,14.75
2022-10-28T02:41:04.392Z,14.75
2022-10-28T02:42:04.389Z,14.69
2022-10-28T02:43:03.515Z,14.69
2022-10-28T02:44:03.584Z,14.69
2022-10-28T02:45:04.466Z,14.69
2022-10-28T02:46:03.603Z,14.69
2022-10-28T02:47:03.744Z,14.69
2022-10-28T02:48:03.743Z,14.62
2022-10-28T02:49:03.827Z,14.62
2022-10-28T02:50:03.829Z,14.62
2022-10-28T02:51:03.984Z,14.62
2022-10-28T02:52:04.029Z,14.62
2022-10-28T02:53:03.984Z,14.62
2022-10-28T02:54:03.914Z,14.62
2022-10-28T02:55:03.914Z,14.56
2022-10-28T02:56:03.907Z,14.56
2022-10-28T02:57:03.964Z,14.62
2022-10-28T02:58:03.988Z,14.62
2022-10-28T02:59:03.901Z,14.56
2022-10-28T03:00:03.985Z,14.56
2022-10-28T03:01:04.134Z,14.50
2022-10-28T03:02:04.121Z,14.50
2022-10-28T03:03:04.159Z,14.50
2022-10-28T03:04:04.166Z,14.44
2022-10-28T03:05:04.145Z,14.44
2022-10-28T03:06:04.164Z,14.44
2022-10-28T03:07:04.180Z,14.44
2022-10-28T03:08:04.137Z,14.44
2022-10-28T03:09:04.304Z,14.44
2022-10-28T03:10:04.309Z,14.38
2022-10-28T03:11:04.306Z,14.38
2022-10-28T03:12:04.234Z,14.38
2022-10-28T03:13:04.392Z,14.38
2022-10-28T03:14:04.379Z,14.38
2022-10-28T03:15:04.309Z,14.38
2022-10-28T03:16:04.467Z,14.38
2022-10-28T03:17:03.765Z,14.31
2022-10-28T03:18:03.847Z,14.31
2022-10-28T03:19:03.872Z,14.31
2022-10-28T03:20:03.749Z,14.31
2022-10-28T03:21:03.898Z,14.31
2022-10-28T03:22:03.905Z,14.31
2022-10-28T03:23:03.829Z,14.31
2022-10-28T03:24:03.829Z,14.31
2022-10-28T03:25:03.989Z,14.25
2022-10-28T03:26:03.983Z,14.25
2022-10-28T03:27:04.068Z,14.25
2022-10-28T03:28:04.068Z,14.19
2022-10-28T03:29:04.155Z,14.25
2022-10-28T03:30:04.138Z,14.19
2022-10-28T03:31:04.239Z,14.25
2022-10-28T03:32:04.294Z,14.19
2022-10-28T03:33:04.148Z,14.19
2022-10-28T03:34:04.139Z,14.19
2022-10-28T03:35:04.170Z,14.19
2022-10-28T03:36:04.224Z,14.19
2022-10-28T03:37:04.225Z,14.19
2022-10-28T03:38:04.232Z,14.19
2022-10-28T03:39:04.149Z,14.19
2022-10-28T03:40:04.143Z,14.19
2022-10-28T03:41:04.080Z,14.19
2022-10-28T03:42:04.064Z,14.19
2022-10-28T03:43:04.144Z,14.19
2022-10-28T03:44:04.069Z,14.19
2022-10-28T03:45:04.153Z,14.19
2022-10-28T03:46:04.313Z,14.19
2022-10-28T03:47:04.316Z,14.19
2022-10-28T03:48:04.229Z,14.19
2022-10-28T03:49:04.227Z,14.19
2022-10-28T03:50:04.238Z,14.19
2022-10-28T03:51:04.252Z,14.19
2022-10-28T03:52:04.318Z,14.19
2022-10-28T03:53:04.300Z,14.19
2022-10-28T03:54:04.349Z,14.19
2022-10-28T03:55:04.298Z,14.19
2022-10-28T03:56:04.382Z,14.19
2022-10-28T03:57:04.405Z,14.19
2022-10-28T03:58:04.483Z,14.19
2022-10-28T03:59:03.656Z,14.19
2022-10-28T04:00:03.544Z,14.19
2022-10-28T04:01:03.630Z,14.19
2022-10-28T04:02:03.788Z,14.19
2022-10-28T04:03:03.598Z,14.19
2022-10-28T04:04:03.670Z,14.19
2022-10-28T04:05:03.750Z,14.19
2022-10-28T04:06:03.749Z,14.19
2022-10-28T04:07:03.758Z,14.19
2022-10-28T04:08:03.658Z,14.19
2022-10-28T04:09:03.660Z,14.19
2022-10-28T04:10:03.740Z,14.19
2022-10-28T04:11:03.849Z,14.25
2022-10-28T04:13:03.914Z,14.25
2022-10-28T04:14:03.827Z,14.25
2022-10-28T04:15:03.904Z,14.25
2022-10-28T04:16:03.932Z,14.25
2022-10-28T04:17:03.988Z,14.19
2022-10-28T04:18:04.011Z,14.19
2022-10-28T04:19:03.982Z,14.19
2022-10-28T04:20:04.137Z,14.19
2022-10-28T04:21:04.066Z,14.19
2022-10-28T04:22:04.231Z,14.19
2022-10-28T04:23:04.337Z,14.19
2022-10-28T04:24:04.224Z,14.19
2022-10-28T04:25:04.716Z,14.19
2022-10-28T04:26:03.666Z,14.19
2022-10-28T04:27:03.760Z,14.19
2022-10-28T04:28:03.759Z,14.19
2022-10-28T04:29:03.742Z,14.19
2022-10-28T04:30:03.819Z,14.19
2022-10-28T04:31:03.830Z,14.19
2022-10-28T04:32:03.817Z,14.19
2022-10-28T04:33:04.076Z,14.19
2022-10-28T04:34:03.976Z,14.19
2022-10-28T04:35:03.987Z,14.19
2022-10-28T04:36:04.153Z,14.19
2022-10-28T04:37:04.087Z,14.19
2022-10-28T04:38:04.140Z,14.19
2022-10-28T04:39:04.228Z,14.12
2022-10-28T04:40:04.314Z,14.12
2022-10-28T04:41:04.229Z,14.12
2022-10-28T04:42:04.239Z,14.12
2022-10-28T04:43:06.355Z,14.12
2022-10-28T04:44:04.383Z,14.12
2022-10-28T04:45:03.987Z,14.12
2022-10-28T04:46:03.988Z,14.12
2022-10-28T04:47:04.068Z,14.12
2022-10-28T04:48:04.065Z,14.12
2022-10-28T04:49:04.087Z,14.06
2022-10-28T04:50:04.150Z,14.12
2022-10-28T04:51:04.076Z,14.06
2022-10-28T04:52:04.151Z,14.06
2022-10-28T04:53:04.065Z,14.06
2022-10-28T04:54:04.156Z,14.06
2022-10-28T04:55:04.162Z,14.06
2022-10-28T04:56:04.151Z,14.06
2022-10-28T04:57:04.229Z,14.06
2022-10-28T04:58:04.225Z,14.06
2022-10-28T04:59:04.229Z,14.06
2022-10-28T05:00:04.240Z,14.00
2022-10-28T05:01:04.269Z,14.00
2022-10-28T05:02:04.298Z,14.00
2022-10-28T05:03:04.233Z,14.00
2022-10-28T05:04:04.063Z,14.00
2022-10-28T05:05:04.300Z,14.00
2022-10-28T05:06:04.232Z,14.00
2022-10-28T05:07:04.315Z,14.00
2022-10-28T05:08:04.299Z,14.00
2022-10-28T05:09:04.314Z,14.00
2022-10-28T05:10:04.306Z,14.00
2022-10-28T05:11:04.380Z,14.00
2022-10-28T05:12:04.385Z,14.00
2022-10-28T05:13:03.506Z,14.00
2022-10-28T05:14:03.507Z,14.00
2022-10-28T05:15:04.544Z,14.00
2022-10-28T05:16:03.506Z,14.00
2022-10-28T05:17:03.714Z,14.00
2022-10-28T05:18:03.677Z,14.00
2022-10-28T05:19:03.769Z,14.00
2022-10-28T05:20:03.743Z,14.00
2022-10-28T05:21:03.660Z,14.00
2022-10-28T05:22:03.709Z,14.00
2022-10-28T05:23:03.662Z,13.94
2022-10-28T05:24:03.663Z,14.00
2022-10-28T05:25:04.135Z,14.00
2022-10-28T05:26:04.221Z,14.00
2022-10-28T05:27:04.301Z,13.94
2022-10-28T05:28:04.405Z,13.94
2022-10-28T05:29:04.223Z,13.94
2022-10-28T05:30:04.393Z,13.94
2022-10-28T05:31:04.381Z,13.94
2022-10-28T05:33:03.515Z,13.94
2022-10-28T05:34:03.502Z,13.88
2022-10-28T05:35:04.950Z,13.94
2022-10-28T05:36:04.070Z,13.88
2022-10-28T05:37:04.063Z,13.88
2022-10-28T05:38:04.073Z,13.88
2022-10-28T05:39:04.003Z,13.88
2022-10-28T05:40:04.164Z,13.81
2022-10-28T05:41:04.144Z,13.81
2022-10-28T05:42:04.224Z,13.81
2022-10-28T05:43:04.309Z,13.81
2022-10-28T05:44:04.471Z,13.81
2022-10-28T05:45:04.407Z,13.75
2022-10-28T05:46:03.513Z,13.75
2022-10-28T05:47:03.507Z,13.75
2022-10-28T05:48:03.508Z,13.75
2022-10-28T05:49:04.478Z,13.75
2022-10-28T05:50:03.506Z,13.75
2022-10-28T05:51:03.517Z,13.75
2022-10-28T05:52:03.598Z,13.69
2022-10-28T05:53:03.671Z,13.69
2022-10-28T05:54:03.670Z,13.75
2022-10-28T05:55:03.758Z,13.69
2022-10-28T05:56:03.765Z,13.62
2022-10-28T05:57:03.825Z,13.62
2022-10-28T05:58:03.985Z,13.69
2022-10-28T05:59:03.998Z,13.62
2022-10-28T06:00:04.029Z,13.62
2022-10-28T06:01:04.074Z,13.62
2022-10-28T06:02:04.065Z,13.56
2022-10-28T06:03:04.146Z,13.56
2022-10-28T06:04:04.168Z,13.62
2022-10-28T06:05:04.154Z,13.56
2022-10-28T06:06:04.252Z,13.56
2022-10-28T06:07:04.152Z,13.56
2022-10-28T06:08:04.148Z,13.56
2022-10-28T06:09:04.328Z,13.56
2022-10-28T06:10:04.307Z,13.50
2022-10-28T06:11:02.771Z,13.50
2022-10-28T06:12:02.867Z,13.50
2022-10-28T06:13:02.051Z,13.50
2022-10-28T06:14:02.058Z,13.50
2022-10-28T06:15:02.221Z,13.50
2022-10-28T06:16:02.225Z,13.50
2022-10-28T06:17:02.215Z,13.50
2022-10-28T06:18:02.249Z,13.50
2022-10-28T06:19:02.868Z,13.50
2022-10-28T06:20:02.981Z,13.50
2022-10-28T06:21:02.150Z,13.50
2022-10-28T06:22:02.060Z,13.50
2022-10-28T06:23:02.222Z,13.50
2022-10-28T06:24:02.149Z,13.50
2022-10-28T06:25:02.224Z,13.50
2022-10-28T06:26:02.224Z,13.56
2022-10-28T06:27:02.328Z,13.56
2022-10-28T06:28:03.915Z,13.56
2022-10-28T06:29:02.387Z,13.56
2022-10-28T06:30:02.478Z,13.56
2022-10-28T06:31:02.640Z,13.62
2022-10-28T06:32:02.547Z,13.62
2022-10-28T06:33:02.550Z,13.62
2022-10-28T06:34:02.558Z,13.69
2022-10-28T06:35:02.638Z,13.69
2022-10-28T06:36:02.573Z,13.69
2022-10-28T06:37:02.637Z,13.75
2022-10-28T06:38:04.751Z,13.75
2022-10-28T06:39:02.719Z,13.75
2022-10-28T06:40:02.803Z,13.75
2022-10-28T06:41:02.808Z,13.75
2022-10-28T06:42:02.879Z,13.81
2022-10-28T06:43:01.998Z,13.81
2022-10-28T06:44:02.959Z,13.81
2022-10-28T06:45:02.087Z,13.88
2022-10-28T06:46:02.968Z,13.88
2022-10-28T06:47:03.509Z,13.88
2022-10-28T06:48:03.602Z,13.94
2022-10-28T06:49:03.673Z,13.94
2022-10-28T06:50:03.674Z,13.94
2022-10-28T06:51:04.156Z,13.94
2022-10-28T06:52:04.240Z,14.00
2022-10-28T06:53:04.173Z,14.00
2022-10-28T06:54:04.323Z,14.06
2022-10-28T06:55:04.322Z,14.06
2022-10-28T06:56:04.484Z,14.12
2022-10-28T06:57:04.523Z,14.19
2022-10-28T06:58:04.436Z,14.19
2022-10-28T06:59:03.540Z,14.19
2022-10-28T07:00:03.528Z,14.31
2022-10-28T07:01:03.609Z,14.38
2022-10-28T07:02:03.832Z,14.38
2022-10-28T07:03:03.774Z,14.44
2022-10-28T07:04:03.688Z,14.50
2022-10-28T07:05:03.776Z,14.56
2022-10-28T07:06:03.931Z,14.56
2022-10-28T07:07:03.859Z,14.62
2022-10-28T07:08:03.939Z,14.69
2022-10-28T07:09:03.862Z,14.69
2022-10-28T07:10:03.873Z,14.75
2022-10-28T07:11:03.848Z,14.75
2022-10-28T07:12:05.160Z,14.81
2022-10-28T07:13:03.883Z,14.81
2022-10-28T07:14:03.877Z,14.88
2022-10-28T07:15:03.784Z,14.88
2022-10-28T07:16:03.869Z,14.94
2022-10-28T07:17:03.862Z,14.94
2022-10-28T07:18:03.861Z,14.94
2022-10-28T07:19:04.796Z,15.00
2022-10-28T07:20:03.863Z,15.06
2022-10-28T07:21:04.021Z,15.06
2022-10-28T07:22:03.970Z,15.12
2022-10-28T07:23:04.111Z,15.12
2022-10-28T07:24:04.032Z,15.19
2022-10-28T07:25:04.102Z,15.19
2022-10-28T07:26:04.097Z,15.25
2022-10-28T07:27:04.030Z,15.25
2022-10-28T07:28:04.118Z,15.31
2022-10-28T07:29:04.100Z,15.38
2022-10-28T07:30:04.031Z,15.44
2022-10-28T07:31:04.230Z,15.44
2022-10-28T07:32:04.111Z,15.50
2022-10-28T07:33:04.185Z,15.56
2022-10-28T07:34:04.275Z,15.62
2022-10-28T07:35:04.276Z,15.69
2022-10-28T07:36:04.352Z,15.81
2022-10-28T07:37:04.432Z,15.81
2022-10-28T07:38:04.354Z,15.88
2022-10-28T07:39:04.355Z,16.00
2022-10-28T07:40:04.371Z,16.06
2022-10-28T07:41:04.302Z,16.12
2022-10-28T07:42:04.276Z,16.19
2022-10-28T07:43:04.383Z,16.25
2022-10-28T07:44:04.352Z,16.31
2022-10-28T07:45:04.479Z,16.38
2022-10-28T07:46:03.553Z,16.38
2022-10-28T07:47:03.639Z,16.44
2022-10-28T07:48:03.630Z,16.50
2022-10-28T07:49:03.804Z,16.56
2022-10-28T07:50:03.801Z,16.62
2022-10-28T07:51:03.806Z,16.69
2022-10-28T07:52:03.950Z,16.75
2022-10-28T07:53:04.045Z,16.81
2022-10-28T07:54:03.946Z,16.88
2022-10-28T07:55:04.010Z,17.00
2022-10-28T07:56:03.960Z,17.06
2022-10-28T07:57:03.967Z,17.19
2022-10-28T07:58:04.026Z,17.25
2022-10-28T07:59:03.953Z,17.38
2022-10-28T08:00:03.861Z,17.44
2022-10-28T08:01:03.943Z,17.56
2022-10-28T08:02:04.010Z,17.62
2022-10-28T08:03:03.880Z,17.75
2022-10-28T08:04:03.782Z,17.88
2022-10-28T08:05:04.076Z,17.94
2022-10-28T08:06:04.185Z,18.06
2022-10-28T08:07:04.255Z,18.19
2022-10-28T08:08:04.262Z,18.25
2022-10-28T08:09:04.254Z,18.31
2022-10-28T08:10:04.369Z,18.38
2022-10-28T08:11:04.403Z,18.50
2022-10-28T08:12:04.494Z,18.50
2022-10-28T08:13:03.602Z,18.62
2022-10-28T08:14:03.612Z,18.62
2022-10-28T08:15:03.673Z,18.69
2022-10-28T08:16:03.521Z,18.69
2022-10-28T08:17:03.632Z,18.75
2022-10-28T08:18:03.695Z,18.81
2022-10-28T08:19:06.775Z,18.81
2022-10-28T08:20:03.918Z,18.81
2022-10-28T08:21:03.829Z,18.88
2022-10-28T08:22:03.916Z,18.88
2022-10-28T08:23:04.171Z,18.94
2022-10-28T08:24:03.992Z,18.94
2022-10-28T08:25:04.025Z,18.94
2022-10-28T08:26:03.981Z,18.94
2022-10-28T08:27:04.001Z,18.94
2022-10-28T08:28:03.999Z,18.94
2022-10-28T08:29:03.988Z,19.00
2022-10-28T08:30:03.988Z,19.00
2022-10-28T08:31:09.041Z,19.00
2022-10-28T08:32:04.002Z,19.00
2022-10-28T08:33:04.243Z,19.00
2022-10-28T08:34:04.235Z,19.06
2022-10-28T08:35:04.314Z,19.06
2022-10-28T08:36:04.381Z,19.06
2022-10-28T08:37:04.461Z,19.06
2022-10-28T08:38:03.501Z,19.06
2022-10-28T08:39:03.674Z,19.06
2022-10-28T08:40:03.671Z,19.12
2022-10-28T08:41:03.501Z,19.06
2022-10-28T08:42:03.588Z,19.12
2022-10-28T08:43:03.498Z,19.12
2022-10-28T08:44:03.586Z,19.12
2022-10-28T08:45:03.613Z,19.19
2022-10-28T08:46:03.505Z,19.12
2022-10-28T08:47:03.594Z,19.12
2022-10-28T08:48:03.604Z,19.12
2022-10-28T08:49:03.753Z,19.12
2022-10-28T08:50:03.756Z,19.12
2022-10-28T08:51:03.832Z,19.12
2022-10-28T08:52:03.913Z,19.06
2022-10-28T08:53:03.511Z,19.06
2022-10-28T08:54:03.591Z,19.06
2022-10-28T08:55:03.679Z,19.06
2022-10-28T08:56:03.789Z,19.06
2022-10-28T08:57:04.151Z,19.00
2022-10-28T08:58:04.154Z,19.00
2022-10-28T08:59:04.229Z,19.00
2022-10-28T09:00:04.336Z,19.00
2022-10-28T09:01:04.343Z,19.00
2022-10-28T09:02:03.526Z,19.00
2022-10-28T09:03:03.612Z,19.00
2022-10-28T09:04:03.515Z,18.94
2022-10-28T09:05:03.520Z,18.94
2022-10-28T09:06:03.508Z,18.94
2022-10-28T09:07:03.672Z,18.94
2022-10-28T09:08:03.675Z,18.94
2022-10-28T09:09:03.682Z,18.94
2022-10-28T09:10:03.769Z,18.94
2022-10-28T09:11:03.831Z,18.94
2022-10-28T09:12:03.836Z,18.94
2022-10-28T09:13:03.749Z,18.94
2022-10-28T09:14:03.750Z,19.00
2022-10-28T09:15:03.912Z,19.00
2022-10-28T09:16:03.914Z,19.00
2022-10-28T09:17:03.918Z,19.00
2022-10-28T09:18:03.910Z,19.00
2022-10-28T09:19:04.077Z,19.06
2022-10-28T09:20:03.936Z,19.06
2022-10-28T09:21:03.861Z,19.06
2022-10-28T09:22:03.835Z,19.06
2022-10-28T09:23:03.918Z,19.06
2022-10-28T09:24:03.998Z,19.12
2022-10-28T09:25:04.093Z,19.12
2022-10-28T09:26:03.994Z,19.19
2022-10-28T09:27:04.166Z,19.19
2022-10-28T09:28:04.101Z,19.19
2022-10-28T09:29:04.197Z,19.19
2022-10-28T09:30:04.154Z,19.25
2022-10-28T09:31:04.153Z,19.25
2022-10-28T09:32:04.232Z,19.25
2022-10-28T09:33:04.261Z,19.31
2022-10-28T09:34:05.194Z,19.31
2022-10-28T09:35:04.482Z,19.31
2022-10-28T09:36:03.516Z,19.38
2022-10-28T09:37:03.599Z,19.38
2022-10-28T09:38:03.677Z,19.38
2022-10-28T09:39:03.765Z,19.38
2022-10-28T09:40:03.761Z,19.44
2022-10-28T09:41:03.835Z,19.44
2022-10-28T09:42:03.763Z,19.44
2022-10-28T09:43:03.840Z,19.44
2022-10-28T09:44:04.001Z,19.50
2022-10-28T09:45:04.031Z,19.50
2022-10-28T09:46:04.080Z,19.50
2022-10-28T09:47:03.994Z,19.50
2022-10-28T09:48:04.069Z,19.56
2022-10-28T09:49:04.199Z,19.56
2022-10-28T09:50:04.248Z,19.56
2022-10-28T09:51:04.146Z,19.56
2022-10-28T09:52:04.391Z,19.56
2022-10-28T09:53:03.519Z,19.62
2022-10-28T09:54:03.596Z,19.62
2022-10-28T09:55:03.678Z,19.62
2022-10-28T09:56:03.835Z,19.62
2022-10-28T09:57:03.842Z,19.62
2022-10-28T09:58:03.923Z,19.69
2022-10-28T09:59:03.956Z,19.69
2022-10-28T10:00:04.161Z,19.69
2022-10-28T10:01:04.077Z,19.69
2022-10-28T10:02:04.247Z,19.75
2022-10-28T10:03:05.005Z,19.75
2022-10-28T10:04:04.238Z,19.75
2022-10-28T10:05:04.154Z,19.81
2022-10-28T10:06:04.314Z,19.81
2022-10-28T10:07:04.358Z,19.88
2022-10-28T10:08:04.410Z,19.88
2022-10-28T10:09:04.317Z,19.88
2022-10-28T10:11:03.524Z,19.94
2022-10-28T10:12:03.605Z,19.94
2022-10-28T10:13:03.526Z,19.94
2022-10-28T10:14:03.591Z,19.94
2022-10-28T10:15:03.672Z,20.00
2022-10-28T10:16:03.751Z,20.00
2022-10-28T10:17:03.838Z,20.00
2022-10-28T10:18:03.759Z,20.00
2022-10-28T10:19:03.716Z,20.00
2022-10-28T10:20:03.759Z,20.06
2022-10-28T10:21:03.743Z,20.06
2022-10-28T10:22:03.754Z,20.06
2022-10-28T10:23:03.834Z,20.06
2022-10-28T10:24:03.921Z,20.06
2022-10-28T10:25:03.918Z,20.06
2022-10-28T10:26:05.559Z,20.06
2022-10-28T10:27:03.870Z,20.06
2022-10-28T10:28:03.836Z,20.12
2022-10-28T10:29:03.998Z,20.12
2022-10-28T10:30:04.005Z,20.12
2022-10-28T10:31:03.997Z,20.19
2022-10-28T10:32:03.989Z,20.19
2022-10-28T10:33:03.908Z,20.19
2022-10-28T10:34:03.993Z,20.25
2022-10-28T10:35:03.914Z,20.25
2022-10-28T10:36:03.994Z,20.25
2022-10-28T10:38:03.928Z,20.31
2022-10-28T10:39:04.007Z,20.31
2022-10-28T10:40:03.904Z,20.38
2022-10-28T10:41:03.995Z,20.44
2022-10-28T10:42:03.917Z,20.50
2022-10-28T10:43:13.560Z,20.50
2022-10-28T10:44:04.008Z,20.50
2022-10-28T10:45:04.001Z,20.50
2022-10-28T10:46:04.002Z,20.50
2022-10-28T10:47:05.736Z,20.50
2022-10-28T10:48:04.025Z,20.50
2022-10-28T10:49:03.988Z,20.56
2022-10-28T10:50:03.991Z,20.56
2022-10-28T10:51:04.082Z,20.56
2022-10-28T10:52:04.072Z,20.62
2022-10-28T10:53:04.069Z,20.62
2022-10-28T10:54:04.252Z,20.62
2022-10-28T10:55:04.243Z,20.62
2022-10-28T10:56:04.275Z,20.62
2022-10-28T10:57:04.389Z,20.69
2022-10-28T10:58:03.520Z,20.62
2022-10-28T10:59:03.514Z,20.69
2022-10-28T11:00:03.594Z,20.69
2022-10-28T11:01:03.613Z,20.69
2022-10-28T11:02:03.677Z,20.69
2022-10-28T11:03:03.765Z,20.69
2022-10-28T11:04:03.753Z,20.69
2022-10-28T11:05:03.594Z,20.69
2022-10-28T11:06:23.350Z,20.69
2022-10-28T11:07:03.680Z,20.75
2022-10-28T11:08:04.235Z,20.81
2022-10-28T11:09:04.427Z,20.81
2022-10-28T11:10:04.232Z,20.88
2022-10-28T11:11:04.238Z,20.88
2022-10-28T11:12:05.531Z,20.94
2022-10-28T11:13:04.068Z,21.00
2022-10-28T11:14:04.151Z,21.00
2022-10-28T11:15:04.170Z,21.06
2022-10-28T11:16:04.093Z,21.12
2022-10-28T11:17:04.160Z,21.12
2022-10-28T11:18:04.317Z,21.19
2022-10-28T11:19:04.327Z,21.19
2022-10-28T11:20:04.401Z,21.25
2022-10-28T11:21:05.031Z,21.25
2022-10-28T11:22:04.321Z,21.25
2022-10-28T11:23:04.324Z,21.31
2022-10-28T11:24:04.396Z,21.31
2022-10-28T11:25:04.399Z,21.31
2022-10-28T11:26:04.407Z,21.31
2022-10-28T11:27:04.391Z,21.38
2022-10-28T11:28:04.726Z,21.38
2022-10-28T11:29:04.398Z,21.38
2022-10-28T11:30:03.526Z,21.38
2022-10-28T11:31:03.719Z,21.38
2022-10-28T11:32:03.688Z,21.38
2022-10-28T11:33:24.646Z,21.38
2022-10-28T11:34:03.834Z,21.38
2022-10-28T11:35:03.918Z,21.38
2022-10-28T11:36:03.921Z,21.38
2022-10-28T11:37:03.862Z,21.44
2022-10-28T11:38:04.307Z,21.44
2022-10-28T11:39:04.413Z,21.44
2022-10-28T11:40:04.492Z,21.44
2022-10-28T11:41:04.395Z,21.44
2022-10-28T11:42:04.475Z,21.44
2022-10-28T11:43:03.514Z,21.44
2022-10-28T11:44:05.372Z,21.44
2022-10-28T11:45:03.513Z,21.44
2022-10-28T11:46:03.680Z,21.44
2022-10-28T11:47:04.938Z,21.50
2022-10-28T11:48:03.683Z,21.50
2022-10-28T11:49:03.679Z,21.50
2022-10-28T11:50:03.918Z,21.44
2022-10-28T11:51:03.915Z,21.44
2022-10-28T11:52:03.993Z,21.44
2022-10-28T11:53:04.401Z,21.44
2022-10-28T11:54:04.502Z,21.44
2022-10-28T11:55:04.481Z,21.44
2022-10-28T11:56:04.562Z,21.44
2022-10-28T11:57:04.475Z,21.44
2022-10-28T11:58:04.490Z,21.44
2022-10-28T11:59:04.469Z,21.44
2022-10-28T12:00:04.572Z,21.44
2022-10-28T12:01:04.394Z,21.44
2022-10-28T12:02:03.704Z,21.44
2022-10-28T12:03:03.693Z,21.50
2022-10-28T12:04:03.679Z,21.50
2022-10-28T12:05:03.609Z,21.50
2022-10-28T12:06:04.481Z,21.50
2022-10-28T12:07:04.080Z,21.50
2022-10-28T12:08:04.152Z,21.50
2022-10-28T12:09:04.132Z,21.50
2022-10-28T12:10:04.069Z,21.50
2022-10-28T12:11:04.081Z,21.50
2022-10-28T12:12:04.266Z,21.50
2022-10-28T12:13:04.496Z,21.50
2022-10-28T12:14:04.390Z,21.50
2022-10-28T12:15:03.673Z,21.56
2022-10-28T12:16:03.515Z,21.56
2022-10-28T12:17:03.589Z,21.56
2022-10-28T12:18:05.922Z,21.56
2022-10-28T12:19:03.777Z,21.56
2022-10-28T12:20:03.771Z,21.56
2022-10-28T12:21:03.913Z,21.56
2022-10-28T12:22:04.075Z,21.56
2022-10-28T12:23:04.072Z,21.56
2022-10-28T12:24:04.149Z,21.56
2022-10-28T12:25:04.269Z,21.62
2022-10-28T12:26:04.323Z,21.62
2022-10-28T12:27:04.396Z,21.62
2022-10-28T12:28:04.362Z,21.62
2022-10-28T12:29:04.484Z,21.62
2022-10-28T12:30:03.523Z,21.62
2022-10-28T12:31:03.526Z,21.62
2022-10-28T12:32:03.679Z,21.69
2022-10-28T12:33:03.679Z,21.69
2022-10-28T12:34:03.764Z,21.69
2022-10-28T12:35:03.836Z,21.69
2022-10-28T12:36:03.756Z,21.69
2022-10-28T12:37:03.832Z,21.75
2022-10-28T12:38:03.857Z,21.75
2022-10-28T12:39:03.826Z,21.75
2022-10-28T12:40:04.077Z,21.75
2022-10-28T12:41:04.076Z,21.81
2022-10-28T12:42:04.077Z,21.81
2022-10-28T12:43:04.170Z,21.81
2022-10-28T12:44:03.836Z,21.81
2022-10-28T12:45:03.926Z,21.81
2022-10-28T12:46:03.912Z,21.81
2022-10-28T12:47:03.911Z,21.81
2022-10-28T12:48:03.995Z,21.81
2022-10-28T12:49:03.902Z,21.81
2022-10-28T12:50:03.904Z,21.88
2022-10-28T12:51:03.925Z,21.88
2022-10-28T12:52:03.991Z,21.88
2022-10-28T12:53:04.073Z,21.88
2022-10-28T12:54:04.093Z,21.88
2022-10-28T12:55:04.415Z,21.88
2022-10-28T12:56:04.169Z,21.88